createdAt,value
2022-11-07T00:01:11.084Z,60.10
2022-11-07T00:02:45.697Z,60.30
2022-11-07T00:04:19.033Z,60.30
2022-11-07T00:05:54.874Z,60.30
2022-11-07T00:07:28.155Z,60.40
2022-11-07T00:09:00.436Z,60.40
2022-11-07T00:10:33.613Z,60.40
2022-11-07T00:12:06.858Z,60.50
2022-11-07T00:13:40.091Z,60.50
2022-11-07T00:15:13.199Z,60.60
2022-11-07T00:16:47.861Z,60.70
2022-11-07T00:18:22.581Z,60.70
2022-11-07T00:19:55.690Z,60.70
2022-11-07T00:21:28.850Z,60.70
2022-11-07T00:23:01.976Z,60.60
2022-11-07T00:24:35.208Z,60.70
2022-11-07T00:26:10.959Z,60.90
2022-11-07T00:27:44.299Z,60.80
2022-11-07T00:29:20.209Z,60.70
2022-11-07T00:30:53.472Z,60.70
2022-11-07T00:32:26.838Z,60.70
2022-11-07T00:34:01.288Z,60.70
2022-11-07T00:35:34.869Z,60.60
2022-11-07T00:37:08.067Z,60.60
2022-11-07T00:38:41.247Z,60.80
2022-11-07T00:40:14.459Z,60.70
2022-11-07T00:41:48.311Z,60.70
2022-11-07T00:43:21.461Z,60.70
2022-11-07T00:44:54.656Z,60.60
2022-11-07T00:46:26.854Z,60.70
2022-11-07T00:48:00.109Z,60.70
2022-11-07T00:49:34.675Z,60.70
2022-11-07T00:51:09.746Z,60.70
2022-11-07T00:52:43.026Z,60.70
2022-11-07T00:54:16.214Z,60.60
2022-11-07T00:55:49.485Z,60.70
2022-11-07T00:57:22.776Z,60.70
2022-11-07T00:58:57.132Z,60.70
2022-11-07T01:00:30.504Z,60.80
2022-11-07T01:02:03.726Z,60.80
2022-11-07T01:03:54.626Z,60.90
2022-11-07T01:05:28.113Z,61.00
2022-11-07T01:07:03.081Z,61.00
2022-11-07T01:08:35.475Z,61.00
2022-11-07T01:10:09.698Z,61.10
2022-11-07T01:11:44.336Z,61.20
2022-11-07T01:13:16.820Z,61.30
2022-11-07T01:14:50.122Z,61.30
2022-11-07T01:16:22.775Z,61.30
2022-11-07T01:17:55.975Z,61.40
2022-11-07T01:19:29.288Z,61.40
2022-11-07T01:21:05.725Z,61.40
2022-11-07T01:22:38.915Z,61.50
2022-11-07T01:24:15.624Z,61.50
2022-11-07T01:25:52.575Z,61.60
2022-11-07T01:27:25.747Z,61.50
2022-11-07T01:28:58.003Z,61.50
2022-11-07T01:30:31.361Z,61.50
2022-11-07T01:32:05.163Z,61.50
2022-11-07T01:33:38.696Z,61.50
2022-11-07T01:35:12.628Z,61.50
2022-11-07T01:36:47.470Z,61.50
2022-11-07T01:38:20.424Z,61.50
2022-11-07T01:39:53.568Z,61.70
2022-11-07T01:41:29.112Z,61.30
2022-11-07T01:43:02.376Z,61.40
2022-11-07T01:44:56.628Z,61.30
2022-11-07T01:46:33.453Z,61.50
2022-11-07T01:48:06.869Z,61.30
2022-11-07T01:49:43.429Z,61.30
2022-11-07T01:51:18.121Z,61.40
2022-11-07T01:52:55.731Z,61.30
2022-11-07T01:54:35.576Z,61.40
2022-11-07T01:56:17.110Z,61.40
2022-11-07T01:57:55.068Z,61.40
2022-11-07T01:59:33.014Z,61.50
2022-11-07T02:01:06.796Z,61.70
2022-11-07T02:02:41.608Z,61.60
2022-11-07T02:04:15.049Z,61.80
2022-11-07T02:05:53.476Z,62.30
2022-11-07T02:07:27.386Z,61.90
2022-11-07T02:09:02.236Z,62.00
2022-11-07T02:10:43.232Z,62.20
2022-11-07T02:12:18.052Z,62.40
2022-11-07T02:13:51.206Z,62.30
2022-11-07T02:15:26.306Z,62.20
2022-11-07T02:17:04.026Z,61.90
2022-11-07T02:18:41.369Z,62.00
2022-11-07T02:20:15.185Z,62.10
2022-11-07T02:21:58.245Z,62.10
2022-11-07T02:23:42.835Z,62.30
2022-11-07T02:25:20.008Z,62.30
2022-11-07T02:26:57.422Z,62.30
2022-11-07T02:28:32.500Z,62.20
2022-11-07T02:30:10.561Z,62.20
2022-11-07T02:31:42.852Z,62.20
2022-11-07T02:33:21.595Z,62.20
2022-11-07T02:35:00.934Z,62.30
2022-11-07T02:36:34.853Z,62.50
2022-11-07T02:38:13.340Z,62.20
2022-11-07T02:39:45.984Z,62.20
2022-11-07T02:41:25.467Z,62.30
2022-11-07T02:42:59.359Z,62.20
2022-11-07T02:44:33.368Z,62.20
2022-11-07T02:46:11.300Z,62.20
2022-11-07T02:47:44.631Z,62.20
2022-11-07T02:49:18.501Z,62.30
2022-11-07T02:50:51.646Z,62.20
2022-11-07T02:52:24.920Z,62.10
2022-11-07T02:53:58.475Z,62.20
2022-11-07T02:55:31.791Z,62.10
2022-11-07T02:57:06.479Z,62.10
2022-11-07T02:58:39.933Z,62.10
2022-11-07T03:00:15.831Z,62.00
2022-11-07T03:01:49.159Z,62.20
2022-11-07T03:03:22.997Z,62.00
2022-11-07T03:04:58.261Z,62.10
2022-11-07T03:06:31.533Z,62.00
2022-11-07T03:08:04.305Z,62.10
2022-11-07T03:09:37.483Z,62.10
2022-11-07T03:11:12.503Z,63.00
2022-11-07T03:12:47.397Z,62.40
2022-11-07T03:14:20.447Z,62.50
2022-11-07T03:15:53.254Z,62.90
2022-11-07T03:17:26.422Z,62.40
2022-11-07T03:19:01.923Z,62.40
2022-11-07T03:20:35.305Z,62.50
2022-11-07T03:22:07.439Z,62.60
2022-11-07T03:23:40.697Z,62.60
2022-11-07T03:25:14.057Z,62.60
2022-11-07T03:26:47.272Z,62.70
2022-11-07T03:28:21.961Z,62.80
2022-11-07T03:29:54.152Z,62.90
2022-11-07T03:31:27.318Z,62.90
2022-11-07T03:33:00.628Z,62.80
2022-11-07T03:34:33.817Z,62.80
2022-11-07T03:36:07.823Z,63.60
2022-11-07T03:37:39.994Z,62.80
2022-11-07T03:39:13.227Z,62.70
2022-11-07T03:40:47.312Z,62.90
2022-11-07T03:42:20.549Z,62.90
2022-11-07T03:43:55.161Z,63.00
2022-11-07T03:45:28.339Z,63.00
2022-11-07T03:47:01.478Z,63.00
2022-11-07T03:48:35.720Z,63.00
2022-11-07T03:50:13.493Z,63.00
2022-11-07T03:51:46.675Z,63.00
2022-11-07T03:53:25.205Z,63.00
2022-11-07T03:54:59.232Z,63.00
2022-11-07T03:56:32.465Z,63.00
2022-11-07T03:58:06.228Z,63.10
2022-11-07T03:59:40.790Z,63.10
2022-11-07T04:01:13.964Z,63.10
2022-11-07T04:02:47.310Z,63.20
2022-11-07T04:04:19.687Z,63.30
2022-11-07T04:05:52.853Z,63.30
2022-11-07T04:07:25.024Z,63.40
2022-11-07T04:08:58.338Z,63.40
2022-11-07T04:10:31.483Z,63.50
2022-11-07T04:12:22.393Z,63.60
2022-11-07T04:14:13.323Z,63.70
2022-11-07T04:16:05.657Z,63.70
2022-11-07T04:17:38.937Z,63.70
2022-11-07T04:19:12.239Z,63.70
2022-11-07T04:20:45.436Z,63.80
2022-11-07T04:22:20.088Z,63.80
2022-11-07T04:23:53.303Z,63.80
2022-11-07T04:25:40.378Z,63.80
2022-11-07T04:27:32.533Z,63.80
2022-11-07T04:29:05.830Z,63.90
2022-11-07T04:30:39.161Z,63.90
2022-11-07T04:32:13.667Z,63.80
2022-11-07T04:33:46.847Z,64.00
2022-11-07T04:35:20.406Z,64.00
2022-11-07T04:36:53.575Z,64.10
2022-11-07T04:38:27.685Z,64.10
2022-11-07T04:39:59.882Z,64.10
2022-11-07T04:41:33.016Z,64.10
2022-11-07T04:43:09.195Z,64.10
2022-11-07T04:44:41.659Z,64.10
2022-11-07T04:46:15.098Z,64.00
2022-11-07T04:47:50.342Z,64.70
2022-11-07T04:49:23.627Z,63.90
2022-11-07T04:50:57.558Z,63.80
2022-11-07T04:52:29.974Z,63.80
2022-11-07T04:54:03.204Z,63.80
2022-11-07T04:55:36.374Z,63.70
2022-11-07T04:57:09.539Z,63.60
2022-11-07T04:58:43.089Z,63.50
2022-11-07T05:00:18.324Z,63.40
2022-11-07T05:01:51.698Z,63.40
2022-11-07T05:03:26.261Z,63.30
2022-11-07T05:04:59.425Z,63.20
2022-11-07T05:06:37.559Z,63.10
2022-11-07T05:08:10.931Z,63.20
2022-11-07T05:09:44.226Z,63.10
2022-11-07T05:11:17.519Z,63.00
2022-11-07T05:12:50.930Z,62.90
2022-11-07T05:14:25.384Z,62.90
2022-11-07T05:15:59.251Z,63.00
2022-11-07T05:17:32.475Z,63.10
2022-11-07T05:19:07.087Z,63.00
2022-11-07T05:20:41.202Z,63.00
2022-11-07T05:22:31.878Z,63.10
2022-11-07T05:24:05.727Z,63.00
2022-11-07T05:25:38.385Z,63.00
2022-11-07T05:27:19.368Z,62.90
2022-11-07T05:28:52.523Z,63.00
2022-11-07T05:30:24.682Z,62.80
2022-11-07T05:31:57.980Z,62.70
2022-11-07T05:33:31.334Z,62.70
2022-11-07T05:35:06.665Z,62.70
2022-11-07T05:36:40.819Z,62.80
2022-11-07T05:38:14.253Z,62.70
2022-11-07T05:39:51.117Z,62.70
2022-11-07T05:41:28.259Z,62.80
2022-11-07T05:43:02.135Z,62.90
2022-11-07T05:44:35.612Z,62.80
2022-11-07T05:46:09.617Z,62.90
2022-11-07T05:47:42.863Z,63.00
2022-11-07T05:49:16.278Z,63.00
2022-11-07T05:50:50.741Z,62.90
2022-11-07T05:52:23.923Z,63.00
2022-11-07T05:53:57.096Z,62.90
2022-11-07T05:55:30.636Z,62.90
2022-11-07T05:57:03.804Z,63.00
2022-11-07T05:58:37.806Z,62.90
2022-11-07T06:00:13.129Z,63.00
2022-11-07T06:01:50.965Z,62.90
2022-11-07T06:03:24.716Z,62.90
2022-11-07T06:04:57.820Z,63.00
2022-11-07T06:06:32.609Z,63.00
2022-11-07T06:08:06.549Z,63.00
2022-11-07T06:09:39.717Z,63.00
2022-11-07T06:11:12.905Z,62.90
2022-11-07T06:12:46.188Z,63.00
2022-11-07T06:14:19.761Z,63.00
2022-11-07T06:15:53.027Z,63.10
2022-11-07T06:17:26.142Z,63.30
2022-11-07T06:18:59.387Z,63.30
2022-11-07T06:20:32.815Z,63.30
2022-11-07T06:22:07.288Z,63.40
2022-11-07T06:23:40.513Z,63.40
2022-11-07T06:25:13.905Z,63.50
2022-11-07T06:26:48.222Z,63.60
2022-11-07T06:28:21.519Z,64.00
2022-11-07T06:29:54.737Z,63.80
2022-11-07T06:31:27.873Z,63.80
2022-11-07T06:33:03.169Z,63.90
2022-11-07T06:34:36.299Z,64.20
2022-11-07T06:36:12.453Z,64.20
2022-11-07T06:37:46.979Z,64.30
2022-11-07T06:39:20.238Z,64.40
2022-11-07T06:40:53.332Z,64.40
2022-11-07T06:42:27.114Z,64.30
2022-11-07T06:44:00.387Z,64.50
2022-11-07T06:45:33.686Z,64.60
2022-11-07T06:47:07.318Z,64.80
2022-11-07T06:48:41.073Z,64.90
2022-11-07T06:50:14.351Z,65.10
2022-11-07T06:51:48.075Z,65.20
2022-11-07T06:53:22.853Z,65.30
2022-11-07T06:54:56.000Z,65.50
2022-11-07T06:56:29.372Z,65.60
2022-11-07T06:58:02.937Z,65.70
2022-11-07T06:59:36.294Z,66.00
2022-11-07T07:01:13.508Z,66.10
2022-11-07T07:02:58.366Z,66.20
2022-11-07T07:04:32.350Z,66.20
2022-11-07T07:06:10.537Z,66.20
2022-11-07T07:07:43.696Z,66.30
2022-11-07T07:09:18.440Z,66.40
2022-11-07T07:10:51.653Z,66.40
2022-11-07T07:12:26.314Z,66.40
2022-11-07T07:14:02.119Z,66.40
2022-11-07T07:15:49.854Z,66.50
2022-11-07T07:17:24.281Z,66.50
2022-11-07T07:18:57.625Z,66.50
2022-11-07T07:20:31.454Z,66.60
2022-11-07T07:22:04.563Z,66.50
2022-11-07T07:23:39.061Z,67.00
2022-11-07T07:25:13.653Z,66.50
2022-11-07T07:26:46.844Z,66.40
2022-11-07T07:28:20.016Z,66.40
2022-11-07T07:29:53.505Z,66.30
2022-11-07T07:31:31.695Z,66.40
2022-11-07T07:33:04.961Z,66.50
2022-11-07T07:34:38.088Z,66.30
2022-11-07T07:36:16.492Z,66.20
2022-11-07T07:37:53.068Z,66.10
2022-11-07T07:39:28.046Z,66.10
2022-11-07T07:41:04.025Z,66.10
2022-11-07T07:42:43.270Z,66.20
2022-11-07T07:44:26.601Z,66.20
2022-11-07T07:46:00.664Z,66.10
2022-11-07T07:47:33.834Z,66.30
2022-11-07T07:49:07.085Z,66.20
2022-11-07T07:50:40.247Z,66.30
2022-11-07T07:52:13.580Z,66.00
2022-11-07T07:53:46.715Z,65.90
2022-11-07T07:55:19.819Z,65.90
2022-11-07T07:56:54.716Z,66.00
2022-11-07T07:58:28.452Z,66.00
2022-11-07T08:00:01.552Z,65.90
2022-11-07T08:01:57.984Z,65.80
2022-11-07T08:03:50.723Z,65.60
2022-11-07T08:05:24.582Z,65.70
2022-11-07T08:06:57.709Z,65.60
2022-11-07T08:08:36.848Z,65.50
2022-11-07T08:10:39.517Z,65.50
2022-11-07T08:12:05.474Z,65.50
2022-11-07T08:13:38.762Z,65.50
2022-11-07T08:15:13.432Z,65.40
2022-11-07T08:16:46.577Z,65.30
2022-11-07T08:18:22.804Z,65.30
2022-11-07T08:19:55.984Z,65.30
2022-11-07T08:21:29.310Z,65.30
2022-11-07T08:23:04.355Z,65.40
2022-11-07T08:24:37.510Z,65.40
2022-11-07T08:26:10.922Z,65.30
2022-11-07T08:27:44.072Z,65.30
2022-11-07T08:29:17.280Z,65.20
2022-11-07T08:30:58.911Z,65.00
2022-11-07T08:32:32.201Z,65.10
2022-11-07T08:34:06.727Z,65.00
2022-11-07T08:35:42.670Z,64.80
2022-11-07T08:37:16.148Z,64.80
2022-11-07T08:38:49.534Z,64.80
2022-11-07T08:40:24.000Z,64.70
2022-11-07T08:41:57.126Z,64.80
2022-11-07T08:43:30.454Z,64.70
2022-11-07T08:45:04.152Z,64.70
2022-11-07T08:46:37.606Z,64.70
2022-11-07T08:48:11.701Z,64.80
2022-11-07T08:49:46.272Z,64.80
2022-11-07T08:51:19.752Z,64.70
2022-11-07T08:52:55.000Z,64.70
2022-11-07T08:54:32.501Z,64.70
2022-11-07T08:56:08.769Z,64.60
2022-11-07T08:57:42.145Z,64.50
2022-11-07T08:59:15.733Z,64.50
2022-11-07T09:00:49.055Z,64.50
2022-11-07T09:04:15.561Z,64.40
2022-11-07T09:05:50.262Z,64.60
2022-11-07T09:07:23.449Z,64.20
2022-11-07T09:08:56.820Z,64.30
2022-11-07T09:10:29.957Z,64.20
2022-11-07T09:12:03.298Z,64.10
2022-11-07T09:13:36.907Z,64.20
2022-11-07T09:15:11.483Z,64.30
2022-11-07T09:16:44.575Z,64.30
2022-11-07T09:18:18.052Z,64.10
2022-11-07T09:19:51.565Z,64.10
2022-11-07T09:21:29.814Z,64.10
2022-11-07T09:23:06.141Z,64.20
2022-11-07T09:24:49.810Z,64.90
2022-11-07T09:26:23.165Z,64.20
2022-11-07T09:27:56.709Z,64.00
2022-11-07T09:29:29.893Z,64.10
2022-11-07T09:31:05.224Z,64.10
2022-11-07T09:32:45.030Z,64.10
2022-11-07T09:34:19.494Z,64.10
2022-11-07T09:35:53.888Z,64.20
2022-11-07T09:37:29.145Z,64.20
2022-11-07T09:39:02.142Z,64.20
2022-11-07T09:40:49.517Z,64.20
2022-11-07T09:42:42.371Z,64.30
2022-11-07T09:44:44.723Z,64.10
2022-11-07T09:46:34.904Z,64.50
2022-11-07T09:48:18.484Z,64.20
2022-11-07T09:49:54.995Z,64.10
2022-11-07T09:51:35.424Z,63.80
2022-11-07T09:53:23.140Z,63.70
2022-11-07T09:55:04.621Z,63.60
2022-11-07T09:56:38.087Z,63.60
2022-11-07T09:58:23.293Z,63.60
2022-11-07T10:00:01.229Z,63.60
2022-11-07T10:01:51.431Z,63.80
2022-11-07T10:03:24.804Z,63.50
2022-11-07T10:05:02.008Z,63.50
2022-11-07T10:06:47.145Z,63.60
2022-11-07T10:08:30.899Z,63.40
2022-11-07T10:10:18.973Z,63.40
2022-11-07T10:12:04.370Z,63.60
2022-11-07T10:13:57.688Z,64.50
2022-11-07T10:15:46.702Z,63.70
2022-11-07T10:17:34.616Z,63.70
2022-11-07T10:19:29.314Z,63.70
2022-11-07T10:23:30.724Z,64.10
2022-11-07T10:25:29.881Z,64.20
2022-11-07T10:27:03.933Z,64.20
2022-11-07T10:28:46.489Z,64.30
2022-11-07T10:30:22.853Z,64.60
2022-11-07T10:32:04.820Z,64.80
2022-11-07T10:33:45.713Z,65.00
2022-11-07T10:35:28.147Z,64.90
2022-11-07T10:37:01.747Z,65.10
2022-11-07T10:38:41.164Z,65.10
2022-11-07T10:40:18.814Z,65.30
2022-11-07T10:42:03.597Z,65.40
2022-11-07T10:43:41.352Z,65.50
2022-11-07T10:45:18.652Z,65.50
2022-11-07T10:46:54.609Z,65.70
2022-11-07T10:48:29.449Z,65.60
2022-11-07T10:50:19.511Z,65.70
2022-11-07T10:51:53.729Z,66.10
2022-11-07T10:53:28.033Z,66.10
2022-11-07T10:55:09.411Z,66.20
2022-11-07T10:56:47.631Z,66.40
2022-11-07T10:58:24.096Z,66.40
2022-11-07T11:00:00.175Z,66.40
2022-11-07T11:01:33.542Z,66.50
2022-11-07T11:03:29.060Z,66.40
2022-11-07T11:05:26.142Z,66.70
2022-11-07T11:07:06.329Z,66.50
2022-11-07T11:08:40.357Z,66.50
2022-11-07T11:10:21.997Z,66.40
2022-11-07T11:11:55.461Z,66.40
2022-11-07T11:13:31.151Z,66.40
2022-11-07T11:15:11.472Z,66.30
2022-11-07T11:16:45.197Z,66.50
2022-11-07T11:18:19.955Z,66.30
2022-11-07T11:19:55.046Z,66.10
2022-11-07T11:21:41.225Z,66.20
2022-11-07T11:23:21.074Z,66.20
2022-11-07T11:25:19.520Z,66.40
2022-11-07T11:26:55.071Z,66.20
2022-11-07T11:28:34.984Z,65.80
2022-11-07T11:30:15.825Z,65.90
2022-11-07T11:31:54.053Z,65.70
2022-11-07T11:33:36.417Z,65.80
2022-11-07T11:35:25.559Z,65.90
2022-11-07T11:37:07.421Z,66.10
2022-11-07T11:38:40.908Z,66.00
2022-11-07T11:40:22.025Z,65.80
2022-11-07T11:41:58.636Z,65.70
2022-11-07T11:43:41.549Z,65.50
2022-11-07T11:45:20.770Z,65.40
2022-11-07T11:47:05.321Z,65.40
2022-11-07T11:48:45.999Z,65.60
2022-11-07T11:50:26.025Z,65.70
2022-11-07T11:52:09.263Z,65.60
2022-11-07T11:53:42.841Z,65.60
2022-11-07T11:55:18.599Z,65.50
2022-11-07T11:56:56.055Z,65.60
2022-11-07T11:58:48.217Z,65.60
2022-11-07T12:00:25.189Z,65.40
2022-11-07T12:02:15.830Z,65.30
2022-11-07T12:04:20.363Z,65.30
2022-11-07T12:06:20.094Z,65.40
2022-11-07T12:08:15.914Z,65.30
2022-11-07T12:09:58.519Z,65.40
2022-11-07T12:11:42.892Z,65.40
2022-11-07T12:13:29.346Z,65.40
2022-11-07T12:15:37.974Z,65.10
2022-11-07T12:17:18.528Z,65.00
2022-11-07T12:19:01.056Z,64.70
2022-11-07T12:20:41.445Z,64.70
2022-11-07T12:22:26.859Z,64.70
2022-11-07T12:24:19.954Z,64.60
2022-11-07T12:26:02.523Z,64.30
2022-11-07T12:27:48.115Z,64.30
2022-11-07T12:29:33.441Z,64.30
2022-11-07T12:31:23.438Z,64.30
2022-11-07T12:33:21.377Z,63.90
2022-11-07T12:35:15.805Z,63.80
2022-11-07T12:37:17.369Z,63.90
2022-11-07T12:39:11.637Z,63.80
2022-11-07T12:40:57.228Z,63.70
2022-11-07T12:42:47.641Z,63.50
2022-11-07T12:44:49.436Z,63.40
2022-11-07T12:46:32.619Z,63.40
2022-11-07T12:48:34.658Z,63.10
2022-11-07T12:50:26.192Z,63.00
2022-11-07T12:52:09.431Z,62.70
2022-11-07T12:53:54.088Z,62.50
2022-11-07T12:55:37.737Z,62.30
2022-11-07T12:57:19.887Z,62.50
2022-11-07T12:58:55.079Z,62.20
2022-11-07T13:00:30.689Z,62.30
2022-11-07T13:02:16.635Z,62.50
2022-11-07T13:04:04.480Z,62.30
2022-11-07T13:05:55.158Z,62.30
2022-11-07T13:07:38.481Z,62.30
2022-11-07T13:09:27.421Z,62.20
2022-11-07T13:11:13.326Z,61.90
2022-11-07T13:12:59.831Z,61.80
2022-11-07T13:14:39.052Z,61.80
2022-11-07T13:16:25.303Z,61.90
2022-11-07T13:17:58.405Z,61.80
2022-11-07T13:19:34.927Z,61.90
2022-11-07T13:21:09.288Z,62.10
2022-11-07T13:22:42.687Z,62.10
2022-11-07T13:24:22.957Z,61.90
2022-11-07T13:26:10.663Z,61.50
2022-11-07T13:28:07.032Z,61.60
2022-11-07T13:29:41.846Z,61.50
2022-11-07T13:31:42.559Z,61.50
2022-11-07T13:33:28.599Z,61.30
2022-11-07T13:35:02.891Z,61.30
2022-11-07T13:36:38.177Z,61.30
2022-11-07T13:38:17.504Z,61.10
2022-11-07T13:39:55.896Z,60.80
2022-11-07T13:41:32.090Z,60.90
2022-11-07T13:43:14.912Z,60.90
2022-11-07T13:44:56.450Z,60.80
2022-11-07T13:46:35.893Z,60.60
2022-11-07T13:48:17.852Z,60.50
2022-11-07T13:49:52.520Z,60.40
2022-11-07T13:51:34.339Z,60.50
2022-11-07T13:53:19.125Z,60.50
2022-11-07T13:55:01.914Z,60.50
2022-11-07T13:56:44.093Z,60.40
2022-11-07T13:58:20.637Z,60.40
2022-11-07T14:00:00.518Z,60.30
2022-11-07T14:01:44.073Z,60.20
2022-11-07T14:03:27.650Z,60.10
2022-11-07T14:05:21.807Z,59.80
2022-11-07T14:06:59.576Z,59.90
2022-11-07T14:08:37.314Z,59.80
2022-11-07T14:10:24.593Z,59.80
2022-11-07T14:11:59.529Z,59.50
2022-11-07T14:13:40.944Z,59.70
2022-11-07T14:15:17.860Z,59.60
2022-11-07T14:16:52.368Z,59.60
2022-11-07T14:18:32.596Z,59.50
2022-11-07T14:20:15.289Z,59.40
2022-11-07T14:21:49.555Z,59.40
2022-11-07T14:23:25.942Z,59.40
2022-11-07T14:24:59.328Z,59.60
2022-11-07T14:26:35.491Z,59.60
2022-11-07T14:28:18.023Z,59.80
2022-11-07T14:29:53.248Z,59.80
2022-11-07T14:31:30.464Z,59.60
2022-11-07T14:33:05.773Z,59.50
2022-11-07T14:34:45.743Z,59.50
2022-11-07T14:36:19.993Z,59.30
2022-11-07T14:37:53.511Z,59.50
2022-11-07T14:39:30.262Z,59.40
2022-11-07T14:41:04.301Z,59.30
2022-11-07T14:42:38.006Z,59.30
2022-11-07T14:44:18.549Z,59.30
2022-11-07T14:46:12.037Z,59.30
2022-11-07T14:47:48.656Z,59.30
2022-11-07T14:49:27.856Z,59.30
2022-11-07T14:51:02.132Z,59.20
2022-11-07T14:52:42.289Z,59.20
2022-11-07T14:54:20.908Z,59.20
2022-11-07T14:55:57.420Z,59.20
2022-11-07T14:57:31.999Z,59.30
2022-11-07T14:59:11.364Z,59.40
2022-11-07T15:00:55.868Z,59.30
2022-11-07T15:02:32.579Z,59.30
2022-11-07T15:04:27.809Z,59.20
2022-11-07T15:06:01.964Z,59.30
2022-11-07T15:07:47.571Z,59.30
2022-11-07T15:09:33.464Z,59.30
2022-11-07T15:11:25.448Z,59.50
2022-11-07T15:13:02.417Z,59.40
2022-11-07T15:14:37.650Z,59.40
2022-11-07T15:16:18.933Z,59.30
2022-11-07T15:17:55.019Z,59.30
2022-11-07T15:19:29.403Z,59.30
2022-11-07T15:21:03.445Z,59.40
2022-11-07T15:22:39.229Z,59.40
2022-11-07T15:24:42.958Z,59.60
2022-11-07T15:26:23.769Z,59.60
2022-11-07T15:27:57.050Z,59.60
2022-11-07T15:29:34.273Z,59.50
2022-11-07T15:31:19.121Z,59.50
2022-11-07T15:32:52.297Z,59.50
2022-11-07T15:34:52.588Z,59.30
2022-11-07T15:36:21.148Z,60.10
2022-11-07T15:37:57.288Z,59.40
2022-11-07T15:39:31.037Z,59.50
2022-11-07T15:41:04.420Z,59.60
2022-11-07T15:42:37.704Z,59.50
2022-11-07T15:44:10.937Z,59.50
2022-11-07T15:45:45.012Z,59.60
2022-11-07T15:47:24.261Z,59.60
2022-11-07T15:48:58.720Z,59.50
2022-11-07T15:50:32.568Z,59.50
2022-11-07T15:52:06.101Z,60.30
2022-11-07T15:53:39.533Z,59.50
2022-11-07T15:55:19.696Z,59.40
2022-11-07T15:57:03.182Z,59.40
2022-11-07T15:58:36.472Z,59.30
2022-11-07T16:00:17.768Z,59.40
2022-11-07T16:01:51.157Z,59.40
2022-11-07T16:03:28.014Z,59.50
2022-11-07T16:05:01.153Z,59.40
2022-11-07T16:06:35.237Z,59.40
2022-11-07T16:08:10.436Z,59.30
2022-11-07T16:09:43.709Z,59.30
2022-11-07T16:11:16.874Z,59.30
2022-11-07T16:12:50.386Z,59.40
2022-11-07T16:14:43.515Z,59.40
2022-11-07T16:16:23.077Z,59.40
2022-11-07T16:17:56.837Z,59.40
2022-11-07T16:19:32.048Z,59.60
2022-11-07T16:21:06.067Z,59.50
2022-11-07T16:22:39.279Z,59.60
2022-11-07T16:24:12.618Z,59.70
2022-11-07T16:25:49.201Z,59.70
2022-11-07T16:27:22.414Z,59.60
2022-11-07T16:28:56.070Z,59.50
2022-11-07T16:30:29.277Z,59.50
2022-11-07T16:32:02.557Z,59.50
2022-11-07T16:33:35.880Z,59.70
2022-11-07T16:35:11.616Z,59.70
2022-11-07T16:36:44.948Z,59.70
2022-11-07T16:38:20.959Z,59.70
2022-11-07T16:39:54.210Z,59.80
2022-11-07T16:41:27.597Z,59.90
2022-11-07T16:43:03.357Z,60.00
2022-11-07T16:44:36.737Z,60.10
2022-11-07T16:46:15.353Z,60.10
2022-11-07T16:47:48.888Z,60.10
2022-11-07T16:49:29.291Z,60.10
2022-11-07T16:51:04.138Z,60.20
2022-11-07T16:52:37.219Z,60.20
2022-11-07T16:54:10.401Z,60.30
2022-11-07T16:55:53.095Z,60.30
2022-11-07T16:57:27.470Z,60.40
2022-11-07T16:59:01.272Z,60.50
2022-11-07T17:00:34.801Z,60.30
2022-11-07T17:02:21.288Z,60.40
2022-11-07T17:03:56.003Z,60.40
2022-11-07T17:05:29.236Z,60.80
2022-11-07T17:07:04.074Z,60.50
2022-11-07T17:08:41.660Z,60.70
2022-11-07T17:10:18.809Z,60.70
2022-11-07T17:11:52.141Z,60.70
2022-11-07T17:13:25.398Z,61.60
2022-11-07T17:14:58.665Z,60.80
2022-11-07T17:16:35.457Z,60.80
2022-11-07T17:18:19.037Z,61.00
2022-11-07T17:19:52.643Z,60.90
2022-11-07T17:21:29.068Z,60.90
2022-11-07T17:23:03.621Z,61.00
2022-11-07T17:24:36.829Z,60.90
2022-11-07T17:26:10.978Z,60.90
2022-11-07T17:27:44.233Z,61.10
2022-11-07T17:29:17.666Z,61.00
2022-11-07T17:30:50.977Z,61.20
2022-11-07T17:32:24.344Z,61.10
2022-11-07T17:33:57.542Z,61.00
2022-11-07T17:35:33.001Z,61.10
2022-11-07T17:37:06.609Z,61.90
2022-11-07T17:38:41.267Z,61.20
2022-11-07T17:40:22.659Z,61.10
2022-11-07T17:41:56.005Z,61.90
2022-11-07T17:43:29.273Z,61.10
2022-11-07T17:45:02.400Z,61.10
2022-11-07T17:46:42.500Z,61.20
2022-11-07T17:48:16.025Z,61.30
2022-11-07T17:49:49.393Z,61.10
2022-11-07T17:51:22.772Z,61.00
2022-11-07T17:52:55.988Z,61.00
2022-11-07T17:54:30.487Z,61.10
2022-11-07T17:56:03.753Z,61.10
2022-11-07T17:57:38.032Z,61.10
2022-11-07T17:59:18.431Z,61.10
2022-11-07T18:00:51.700Z,61.10
2022-11-07T18:02:25.155Z,61.10
2022-11-07T18:03:59.045Z,61.10
2022-11-07T18:05:34.590Z,61.10
2022-11-07T18:07:07.893Z,61.10
2022-11-07T18:08:56.711Z,61.10
2022-11-07T18:10:31.495Z,61.10
2022-11-07T18:12:05.222Z,61.00
2022-11-07T18:13:39.680Z,60.90
2022-11-07T18:15:13.589Z,60.90
2022-11-07T18:16:46.789Z,60.90
2022-11-07T18:18:20.228Z,60.80
2022-11-07T18:19:53.698Z,61.00
2022-11-07T18:21:27.516Z,61.00
2022-11-07T18:23:00.829Z,61.10
2022-11-07T18:24:33.940Z,61.00
2022-11-07T18:26:11.692Z,61.00
2022-11-07T18:27:44.870Z,61.00
2022-11-07T18:29:18.542Z,60.90
2022-11-07T18:30:51.671Z,60.80
2022-11-07T18:32:24.979Z,60.70
2022-11-07T18:33:59.745Z,60.80
2022-11-07T18:35:32.950Z,60.90
2022-11-07T18:37:06.088Z,60.70
2022-11-07T18:38:39.786Z,60.60
2022-11-07T18:40:13.872Z,60.80
2022-11-07T18:41:49.787Z,60.80
2022-11-07T18:43:23.070Z,60.80
2022-11-07T18:44:56.225Z,60.80
2022-11-07T18:46:29.624Z,60.70
2022-11-07T18:48:03.090Z,60.80
2022-11-07T18:49:36.458Z,61.00
2022-11-07T18:51:12.641Z,60.80
2022-11-07T18:52:45.844Z,60.90
2022-11-07T18:54:19.178Z,60.80
2022-11-07T18:55:58.552Z,60.90
2022-11-07T18:57:33.452Z,61.00
2022-11-07T18:59:06.626Z,61.00
2022-11-07T19:00:40.083Z,61.00
2022-11-07T19:02:13.789Z,60.90
2022-11-07T19:03:47.980Z,60.90
2022-11-07T19:05:21.952Z,61.00
2022-11-07T19:06:58.053Z,61.10
2022-11-07T19:08:34.328Z,61.00
2022-11-07T19:10:09.140Z,61.10
2022-11-07T19:11:42.368Z,61.10
2022-11-07T19:13:16.911Z,61.10
2022-11-07T19:14:50.230Z,61.20
2022-11-07T19:16:24.291Z,61.10
2022-11-07T19:17:57.554Z,61.10
2022-11-07T19:19:30.815Z,61.10
2022-11-07T19:21:04.684Z,61.10
2022-11-07T19:22:37.963Z,61.30
2022-11-07T19:24:13.060Z,61.20
2022-11-07T19:25:46.292Z,61.20
2022-11-07T19:27:19.699Z,61.30
2022-11-07T19:28:55.169Z,61.30
2022-11-07T19:30:28.455Z,61.30
2022-11-07T19:32:02.426Z,61.30
2022-11-07T19:33:36.050Z,61.40
2022-11-07T19:35:10.265Z,61.40
2022-11-07T19:36:43.777Z,61.40
2022-11-07T19:38:17.198Z,61.30
2022-11-07T19:39:50.652Z,61.20
2022-11-07T19:41:23.945Z,62.10
2022-11-07T19:42:57.481Z,61.30
2022-11-07T19:44:33.903Z,61.30
2022-11-07T19:46:08.635Z,61.20
2022-11-07T19:47:41.902Z,61.30
2022-11-07T19:49:15.125Z,61.30
2022-11-07T19:50:48.464Z,61.30
2022-11-07T19:52:21.725Z,61.30
2022-11-07T19:53:56.753Z,61.20
2022-11-07T19:55:30.229Z,61.30
2022-11-07T19:57:03.375Z,61.20
2022-11-07T19:58:37.189Z,61.30
2022-11-07T20:00:14.049Z,61.30
2022-11-07T20:02:04.177Z,61.30
2022-11-07T20:03:43.538Z,61.20
2022-11-07T20:05:24.161Z,61.20
2022-11-07T20:06:57.728Z,61.20
2022-11-07T20:08:30.946Z,61.20
2022-11-07T20:10:04.443Z,61.20
2022-11-07T20:11:37.789Z,61.30
2022-11-07T20:13:11.010Z,61.20
2022-11-07T20:14:44.396Z,61.10
2022-11-07T20:16:18.953Z,61.10
2022-11-07T20:17:52.412Z,61.10
2022-11-07T20:19:25.756Z,61.90
2022-11-07T20:21:04.194Z,61.20
2022-11-07T20:22:42.561Z,61.20
2022-11-07T20:24:18.645Z,61.20
2022-11-07T20:25:51.965Z,61.10
2022-11-07T20:27:25.576Z,61.20
2022-11-07T20:28:59.722Z,61.30
2022-11-07T20:30:33.051Z,61.20
2022-11-07T20:32:07.729Z,61.20
2022-11-07T20:33:41.996Z,61.20
2022-11-07T20:35:15.239Z,61.20
2022-11-07T20:36:50.429Z,61.20
2022-11-07T20:38:23.739Z,61.20
2022-11-07T20:39:56.993Z,61.30
2022-11-07T20:41:30.712Z,61.30
2022-11-07T20:43:05.239Z,61.20
2022-11-07T20:44:38.634Z,61.10
2022-11-07T20:46:15.448Z,61.20
2022-11-07T20:47:50.562Z,61.10
2022-11-07T20:49:23.893Z,61.00
2022-11-07T20:50:57.008Z,61.10
2022-11-07T20:52:30.181Z,60.90